createdAt,value
2022-12-22T00:02:47.206Z,8.67
2022-12-22T00:08:10.886Z,8.64
2022-12-22T00:13:35.292Z,8.57
2022-12-22T00:18:58.751Z,8.52
2022-12-22T00:24:22.287Z,8.53
2022-12-22T00:29:47.995Z,8.53
2022-12-22T00:35:11.645Z,8.54
2022-12-22T00:40:40.859Z,8.58
2022-12-22T00:46:04.295Z,8.54
2022-12-22T00:51:28.684Z,8.49
2022-12-22T00:56:52.548Z,8.49
2022-12-22T01:02:16.294Z,8.50
2022-12-22T01:07:42.984Z,8.50
2022-12-22T01:13:06.887Z,8.46
2022-12-22T01:18:30.167Z,8.45
2022-12-22T01:23:53.984Z,8.39
2022-12-22T01:29:17.415Z,8.39
2022-12-22T01:34:40.461Z,8.31
2022-12-22T01:40:04.084Z,8.27
2022-12-22T01:45:42.542Z,8.34
2022-12-22T01:51:06.250Z,8.25
2022-12-22T01:56:30.900Z,8.25
2022-12-22T02:01:55.452Z,8.27
2022-12-22T02:07:21.679Z,8.28
2022-12-22T02:12:57.328Z,8.32
2022-12-22T02:18:38.612Z,8.30
2022-12-22T02:24:14.095Z,8.31
2022-12-22T02:29:40.757Z,8.20
2022-12-22T02:35:04.096Z,8.28
2022-12-22T02:40:48.506Z,8.29
2022-12-22T02:46:32.421Z,8.36
2022-12-22T02:51:58.781Z,8.31
2022-12-22T02:57:25.134Z,8.32
2022-12-22T03:02:48.845Z,8.41
2022-12-22T03:08:12.525Z,8.40
2022-12-22T03:13:35.894Z,8.38
2022-12-22T03:18:58.962Z,8.45
2022-12-22T03:24:22.557Z,8.50
2022-12-22T03:29:27.933Z,8.56
2022-12-22T03:34:33.543Z,8.56
2022-12-22T03:39:39.000Z,8.50
2022-12-22T03:45:02.211Z,8.55
2022-12-22T03:50:08.521Z,8.60
2022-12-22T03:55:13.980Z,8.63
2022-12-22T04:00:20.182Z,8.52
2022-12-22T04:05:25.714Z,8.53
2022-12-22T04:10:49.146Z,8.59
2022-12-22T04:15:54.540Z,8.60
2022-12-22T04:21:00.004Z,8.53
2022-12-22T04:26:05.625Z,8.55
2022-12-22T04:31:11.057Z,8.61
2022-12-22T04:36:17.559Z,8.60
2022-12-22T04:41:23.080Z,8.69
2022-12-22T04:46:28.651Z,8.73
2022-12-22T04:51:34.328Z,8.73
2022-12-22T04:56:39.797Z,8.76
2022-12-22T05:01:45.418Z,8.71
2022-12-22T05:06:50.973Z,8.65
2022-12-22T05:11:56.360Z,8.65
2022-12-22T05:17:01.803Z,8.68
2022-12-22T05:22:07.278Z,8.53
2022-12-22T05:27:13.698Z,8.43
2022-12-22T05:32:19.384Z,8.41
2022-12-22T05:37:24.787Z,8.23
2022-12-22T05:42:39.728Z,8.16
2022-12-22T05:47:47.894Z,8.24
2022-12-22T05:52:53.360Z,8.24
2022-12-22T05:58:00.972Z,8.31
2022-12-22T06:03:06.569Z,8.27
2022-12-22T06:08:12.222Z,8.29
2022-12-22T06:13:17.745Z,8.33
2022-12-22T06:18:23.270Z,8.25
2022-12-22T06:23:29.066Z,8.29
2022-12-22T06:28:34.583Z,8.35
2022-12-22T06:33:40.056Z,8.29
2022-12-22T06:38:45.499Z,8.29
2022-12-22T06:43:50.954Z,8.20
2022-12-22T06:48:56.405Z,8.20
2022-12-22T06:54:02.010Z,8.16
2022-12-22T06:59:07.635Z,8.16
2022-12-22T07:04:16.755Z,8.16
2022-12-22T07:09:22.229Z,8.19
2022-12-22T07:14:27.697Z,8.14
2022-12-22T07:19:33.211Z,8.15
2022-12-22T07:24:38.707Z,8.23
2022-12-22T07:29:44.272Z,8.23
2022-12-22T07:34:49.645Z,8.21
2022-12-22T07:39:55.763Z,8.32
2022-12-22T07:45:01.237Z,8.36
2022-12-22T07:50:26.009Z,8.46
2022-12-22T07:55:34.537Z,8.54
2022-12-22T08:00:40.068Z,8.58
2022-12-22T08:05:46.456Z,8.65
2022-12-22T08:10:52.011Z,8.71
2022-12-22T08:15:57.476Z,8.71
2022-12-22T08:21:04.398Z,8.76
2022-12-22T08:26:12.855Z,8.75
2022-12-22T08:31:19.668Z,8.72
2022-12-22T08:36:25.936Z,8.81
2022-12-22T08:41:50.365Z,8.81
2022-12-22T08:46:57.975Z,8.94
2022-12-22T08:52:03.799Z,8.90
2022-12-22T08:57:09.333Z,8.88
2022-12-22T09:02:15.076Z,8.85
2022-12-22T09:07:21.299Z,8.94
2022-12-22T09:12:26.769Z,8.93
2022-12-22T09:17:32.170Z,8.93
2022-12-22T09:22:37.628Z,8.97
2022-12-22T09:27:43.082Z,8.98
2022-12-22T09:32:48.605Z,9.03
2022-12-22T09:37:54.001Z,9.10
2022-12-22T09:43:00.210Z,9.10
2022-12-22T09:48:07.724Z,9.07
2022-12-22T09:53:19.037Z,9.12
2022-12-22T09:58:30.805Z,9.16
2022-12-22T10:04:00.378Z,9.13
2022-12-22T10:09:44.162Z,9.11
2022-12-22T10:14:23.054Z,9.22
2022-12-22T10:19:28.462Z,9.15
2022-12-22T10:24:36.826Z,9.20
2022-12-22T10:29:42.903Z,9.32
2022-12-22T10:35:03.444Z,9.32
2022-12-22T10:40:22.846Z,9.40
2022-12-22T10:45:29.363Z,9.40
2022-12-22T10:50:34.898Z,9.32
2022-12-22T10:55:40.418Z,9.29
2022-12-22T11:00:50.762Z,9.32
2022-12-22T11:05:57.571Z,9.36
2022-12-22T11:11:06.018Z,9.31
2022-12-22T11:16:17.704Z,9.33
2022-12-22T11:21:38.246Z,9.32
2022-12-22T11:26:52.285Z,9.50
2022-12-22T11:32:00.717Z,9.50
2022-12-22T11:37:30.278Z,9.68
2022-12-22T11:42:38.778Z,9.98
2022-12-22T11:47:50.200Z,10.03
2022-12-22T11:53:17.199Z,10.16
2022-12-22T11:58:45.347Z,10.25
2022-12-22T12:04:05.515Z,10.41
2022-12-22T12:09:28.853Z,10.51
2022-12-22T12:15:07.548Z,10.55
2022-12-22T12:20:32.991Z,10.68
2022-12-22T12:25:47.577Z,10.58
2022-12-22T12:30:59.429Z,10.67
2022-12-22T12:36:13.444Z,10.81
2022-12-22T12:41:24.925Z,11.97
2022-12-22T12:46:48.861Z,11.14
2022-12-22T12:51:55.458Z,11.14
2022-12-22T12:57:09.775Z,10.96
2022-12-22T13:02:33.438Z,10.85
2022-12-22T13:08:11.436Z,10.78
2022-12-22T13:13:29.124Z,10.88
2022-12-22T13:18:44.321Z,10.83
2022-12-22T13:24:24.035Z,10.91
2022-12-22T13:29:18.890Z,11.00
2022-12-22T13:34:31.011Z,10.95
2022-12-22T13:39:36.471Z,11.04
2022-12-22T13:44:42.148Z,11.21
2022-12-22T13:54:55.420Z,11.00
2022-12-22T14:00:00.951Z,10.89
2022-12-22T14:05:10.895Z,11.00
2022-12-22T14:10:16.352Z,10.76
2022-12-22T14:15:22.548Z,10.23
2022-12-22T14:20:32.379Z,10.09
2022-12-22T14:25:43.875Z,10.07
2022-12-22T14:30:52.387Z,10.01
2022-12-22T14:36:20.832Z,9.75
2022-12-22T14:41:44.402Z,9.57
2022-12-22T14:47:20.473Z,9.51
2022-12-22T14:52:41.039Z,9.40
2022-12-22T14:57:46.564Z,9.30
2022-12-22T15:03:01.806Z,9.27
2022-12-22T15:08:10.320Z,9.27
2022-12-22T15:13:22.537Z,9.29
2022-12-22T15:18:29.750Z,9.24
2022-12-22T15:23:35.212Z,9.23
2022-12-22T15:28:40.687Z,9.27
2022-12-22T15:33:46.908Z,9.25
2022-12-22T15:38:52.503Z,9.26
2022-12-22T15:43:59.240Z,9.26
2022-12-22T15:49:05.573Z,9.19
2022-12-22T15:54:13.996Z,9.19
2022-12-22T15:59:22.575Z,9.22
2022-12-22T16:04:28.667Z,9.24
2022-12-22T16:09:43.250Z,9.22
2022-12-22T16:14:51.683Z,9.30
2022-12-22T16:19:57.163Z,9.28
2022-12-22T16:25:05.515Z,9.22
2022-12-22T16:30:17.014Z,9.15
2022-12-22T16:35:25.419Z,9.15
2022-12-22T16:40:33.726Z,9.16
2022-12-22T16:45:39.600Z,9.22
2022-12-22T16:50:47.972Z,9.24
2022-12-22T16:55:53.429Z,9.22
2022-12-22T17:00:58.966Z,9.28
2022-12-22T17:06:05.900Z,9.30
2022-12-22T17:11:14.110Z,9.27
2022-12-22T17:16:22.047Z,9.25
2022-12-22T17:21:29.892Z,9.21
2022-12-22T17:26:37.865Z,9.24
2022-12-22T17:31:43.479Z,9.16
2022-12-22T17:36:50.402Z,9.23
2022-12-22T17:41:57.532Z,9.22
2022-12-22T17:47:03.207Z,9.11
2022-12-22T17:52:17.822Z,8.98
2022-12-22T17:57:26.206Z,8.90
2022-12-22T18:02:31.840Z,8.84
2022-12-22T18:07:43.896Z,8.77
2022-12-22T18:12:46.198Z,8.81
2022-12-22T18:17:52.703Z,8.75
2022-12-22T18:23:02.360Z,8.83
2022-12-22T18:28:09.978Z,8.73
2022-12-22T18:33:15.512Z,8.71
2022-12-22T18:38:30.490Z,8.62
2022-12-22T18:43:35.993Z,8.53
2022-12-22T18:48:41.520Z,8.50
2022-12-22T18:53:47.421Z,8.47
2022-12-22T18:58:52.961Z,8.41
2022-12-22T19:03:59.287Z,8.33
2022-12-22T19:09:04.897Z,8.27
2022-12-22T19:14:22.315Z,8.21
2022-12-22T19:19:27.780Z,8.07
2022-12-22T19:24:33.162Z,8.09
2022-12-22T19:29:38.764Z,8.06
2022-12-22T19:34:44.155Z,8.12
2022-12-22T19:39:49.742Z,8.12
2022-12-22T19:44:55.290Z,8.12
2022-12-22T19:50:01.083Z,8.06
2022-12-22T19:55:07.217Z,7.98
2022-12-22T20:00:24.444Z,7.97
2022-12-22T20:05:32.212Z,7.93
2022-12-22T20:10:40.063Z,7.94
2022-12-22T20:15:46.690Z,7.96
2022-12-22T20:20:57.498Z,9.06
2022-12-22T20:26:05.762Z,8.18
2022-12-22T20:31:14.702Z,7.99
2022-12-22T20:36:31.122Z,7.95
2022-12-22T20:41:36.655Z,7.80
2022-12-22T20:46:47.971Z,7.75
2022-12-22T20:52:00.819Z,7.73
2022-12-22T20:57:06.817Z,7.78
2022-12-22T21:02:24.466Z,7.70
2022-12-22T21:07:30.353Z,7.82
2022-12-22T21:12:37.691Z,7.87
2022-12-22T21:17:46.119Z,7.88
2022-12-22T21:22:50.649Z,7.89
2022-12-22T21:27:56.581Z,7.93
2022-12-22T21:33:02.050Z,7.83
2022-12-22T21:38:07.643Z,7.81
2022-12-22T21:43:13.484Z,7.75
2022-12-22T21:48:21.229Z,7.69
2022-12-22T21:53:26.789Z,7.66
2022-12-22T21:58:32.287Z,7.62
2022-12-22T22:03:48.510Z,7.64
2022-12-22T22:08:56.046Z,7.65
2022-12-22T22:14:01.653Z,7.54
2022-12-22T22:19:19.935Z,7.59
2022-12-22T22:24:25.484Z,7.54
2022-12-22T22:29:31.022Z,7.47
2022-12-22T22:34:36.500Z,7.58
2022-12-22T22:39:42.134Z,7.48
2022-12-22T22:44:47.595Z,7.60
2022-12-22T22:49:52.986Z,7.62
2022-12-22T22:54:58.524Z,7.63
2022-12-22T23:00:05.323Z,7.66
2022-12-22T23:05:16.950Z,7.58
2022-12-22T23:10:19.063Z,8.11
2022-12-22T23:15:24.562Z,7.95
2022-12-22T23:20:30.028Z,7.84
2022-12-22T23:25:35.527Z,7.84
2022-12-22T23:30:42.754Z,7.82
2022-12-22T23:35:50.178Z,7.82
2022-12-22T23:41:07.524Z,7.75
2022-12-22T23:46:16.018Z,7.70
2022-12-22T23:51:23.162Z,7.69
2022-12-22T23:56:30.253Z,7.71
